sensor_id;sensor_type;location;lat;lon;timestamp;temperature;humidity
10121;DHT22;5100;45.176;5.714;2022-10-13T00:00:39;19.10;73.30
10121;DHT22;5100;45.176;5.714;2022-10-13T00:03:06;19.10;73.30
10121;DHT22;5100;45.176;5.714;2022-10-13T00:05:33;19.10;73.40
10121;DHT22;5100;45.176;5.714;2022-10-13T00:07:59;19.10;73.40
10121;DHT22;5100;45.176;5.714;2022-10-13T00:10:29;19.10;73.40
10121;DHT22;5100;45.176;5.714;2022-10-13T00:12:55;19.10;73.40
10121;DHT22;5100;45.176;5.714;2022-10-13T00:15:21;19.10;73.50
10121;DHT22;5100;45.176;5.714;2022-10-13T00:17:47;19.10;73.60
10121;DHT22;5100;45.176;5.714;2022-10-13T00:20:13;19.00;73.50
10121;DHT22;5100;45.176;5.714;2022-10-13T00:22:39;19.00;73.50
10121;DHT22;5100;45.176;5.714;2022-10-13T00:25:06;19.00;73.40
10121;DHT22;5100;45.176;5.714;2022-10-13T00:27:32;19.00;73.40
10121;DHT22;5100;45.176;5.714;2022-10-13T00:29:58;19.00;73.30
10121;DHT22;5100;45.176;5.714;2022-10-13T00:32:24;19.00;73.30
10121;DHT22;5100;45.176;5.714;2022-10-13T00:34:50;19.00;73.30
10121;DHT22;5100;45.176;5.714;2022-10-13T00:37:18;18.90;73.40
10121;DHT22;5100;45.176;5.714;2022-10-13T00:39:44;19.00;73.50
10121;DHT22;5100;45.176;5.714;2022-10-13T00:42:12;18.90;73.50
10121;DHT22;5100;45.176;5.714;2022-10-13T00:47:40;18.90;73.50
10121;DHT22;5100;45.176;5.714;2022-10-13T00:50:09;18.90;73.60
10121;DHT22;5100;45.176;5.714;2022-10-13T00:52:38;18.90;73.70
10121;DHT22;5100;45.176;5.714;2022-10-13T00:55:07;18.90;73.80
10121;DHT22;5100;45.176;5.714;2022-10-13T00:57:33;18.90;73.90
10121;DHT22;5100;45.176;5.714;2022-10-13T01:00:02;18.90;74.00
10121;DHT22;5100;45.176;5.714;2022-10-13T01:02:31;18.90;74.00
10121;DHT22;5100;45.176;5.714;2022-10-13T01:05:02;18.90;74.00
10121;DHT22;5100;45.176;5.714;2022-10-13T01:07:28;18.90;73.90
10121;DHT22;5100;45.176;5.714;2022-10-13T01:09:55;18.90;73.90
10121;DHT22;5100;45.176;5.714;2022-10-13T01:17:30;18.90;74.00
10121;DHT22;5100;45.176;5.714;2022-10-13T01:26:11;18.90;74.10
10121;DHT22;5100;45.176;5.714;2022-10-13T01:31:48;18.90;74.10
10121;DHT22;5100;45.176;5.714;2022-10-13T01:34:29;19.00;74.10
10121;DHT22;5100;45.176;5.714;2022-10-13T01:39:46;18.90;74.20
10121;DHT22;5100;45.176;5.714;2022-10-13T01:42:21;18.90;74.20
10121;DHT22;5100;45.176;5.714;2022-10-13T01:44:53;18.90;74.30
10121;DHT22;5100;45.176;5.714;2022-10-13T01:47:22;19.00;74.20
10121;DHT22;5100;45.176;5.714;2022-10-13T01:49:51;19.00;74.30
10121;DHT22;5100;45.176;5.714;2022-10-13T01:52:19;18.90;74.30
10121;DHT22;5100;45.176;5.714;2022-10-13T01:54:48;18.90;74.40
10121;DHT22;5100;45.176;5.714;2022-10-13T01:57:30;18.90;74.40
10121;DHT22;5100;45.176;5.714;2022-10-13T02:00:04;18.90;74.30
10121;DHT22;5100;45.176;5.714;2022-10-13T02:05:44;18.90;74.00
10121;DHT22;5100;45.176;5.714;2022-10-13T02:11:15;18.90;73.90
10121;DHT22;5100;45.176;5.714;2022-10-13T02:14:04;18.90;73.90
10121;DHT22;5100;45.176;5.714;2022-10-13T02:16:40;18.90;73.80
10121;DHT22;5100;45.176;5.714;2022-10-13T02:19:09;18.90;73.60
10121;DHT22;5100;45.176;5.714;2022-10-13T02:21:36;18.90;73.40
10121;DHT22;5100;45.176;5.714;2022-10-13T02:24:03;18.90;73.20
10121;DHT22;5100;45.176;5.714;2022-10-13T02:26:31;18.90;73.20
10121;DHT22;5100;45.176;5.714;2022-10-13T02:29:09;18.90;73.20
10121;DHT22;5100;45.176;5.714;2022-10-13T02:31:36;18.90;73.20
10121;DHT22;5100;45.176;5.714;2022-10-13T02:34:03;18.90;73.30
10121;DHT22;5100;45.176;5.714;2022-10-13T02:36:29;18.90;73.30
10121;DHT22;5100;45.176;5.714;2022-10-13T02:38:55;18.90;73.20
10121;DHT22;5100;45.176;5.714;2022-10-13T02:41:22;18.90;73.10
10121;DHT22;5100;45.176;5.714;2022-10-13T02:43:47;18.80;73.20
10121;DHT22;5100;45.176;5.714;2022-10-13T02:46:13;18.80;73.20
10121;DHT22;5100;45.176;5.714;2022-10-13T02:48:40;18.80;73.30
10121;DHT22;5100;45.176;5.714;2022-10-13T02:51:06;18.80;73.30
10121;DHT22;5100;45.176;5.714;2022-10-13T02:53:32;18.80;73.40
10121;DHT22;5100;45.176;5.714;2022-10-13T02:55:59;18.80;73.40
10121;DHT22;5100;45.176;5.714;2022-10-13T02:58:26;18.80;73.40
10121;DHT22;5100;45.176;5.714;2022-10-13T03:00:52;18.70;73.50
10121;DHT22;5100;45.176;5.714;2022-10-13T03:03:18;18.70;73.50
10121;DHT22;5100;45.176;5.714;2022-10-13T03:05:45;18.70;73.50
10121;DHT22;5100;45.176;5.714;2022-10-13T03:08:11;18.70;73.60
10121;DHT22;5100;45.176;5.714;2022-10-13T03:10:39;18.70;73.60
10121;DHT22;5100;45.176;5.714;2022-10-13T03:13:04;18.70;73.60
10121;DHT22;5100;45.176;5.714;2022-10-13T03:15:30;18.70;73.50
10121;DHT22;5100;45.176;5.714;2022-10-13T03:17:57;18.70;73.50
10121;DHT22;5100;45.176;5.714;2022-10-13T03:20:23;18.70;73.50
10121;DHT22;5100;45.176;5.714;2022-10-13T03:22:49;18.60;73.50
10121;DHT22;5100;45.176;5.714;2022-10-13T03:25:16;18.60;73.40
10121;DHT22;5100;45.176;5.714;2022-10-13T03:27:42;18.60;73.40
10121;DHT22;5100;45.176;5.714;2022-10-13T03:30:08;18.60;73.40
10121;DHT22;5100;45.176;5.714;2022-10-13T03:32:37;18.60;73.20
10121;DHT22;5100;45.176;5.714;2022-10-13T03:35:05;18.60;73.20
10121;DHT22;5100;45.176;5.714;2022-10-13T03:37:32;18.60;73.20
10121;DHT22;5100;45.176;5.714;2022-10-13T03:39:58;18.60;73.10
10121;DHT22;5100;45.176;5.714;2022-10-13T03:42:24;18.60;73.00
10121;DHT22;5100;45.176;5.714;2022-10-13T03:44:50;18.60;73.00
10121;DHT22;5100;45.176;5.714;2022-10-13T03:47:16;18.60;73.00
10121;DHT22;5100;45.176;5.714;2022-10-13T03:49:42;18.60;73.00
10121;DHT22;5100;45.176;5.714;2022-10-13T03:52:08;18.60;72.90
10121;DHT22;5100;45.176;5.714;2022-10-13T03:54:34;18.60;72.90
10121;DHT22;5100;45.176;5.714;2022-10-13T03:57:01;18.60;72.90
10121;DHT22;5100;45.176;5.714;2022-10-13T03:59:27;18.60;72.90
10121;DHT22;5100;45.176;5.714;2022-10-13T04:01:54;18.60;72.80
10121;DHT22;5100;45.176;5.714;2022-10-13T04:04:21;18.60;72.90
10121;DHT22;5100;45.176;5.714;2022-10-13T04:06:47;18.60;72.90
10121;DHT22;5100;45.176;5.714;2022-10-13T04:09:13;18.60;73.00
10121;DHT22;5100;45.176;5.714;2022-10-13T04:11:39;18.60;73.00
10121;DHT22;5100;45.176;5.714;2022-10-13T04:14:05;18.50;73.10
10121;DHT22;5100;45.176;5.714;2022-10-13T04:16:32;18.50;73.10
10121;DHT22;5100;45.176;5.714;2022-10-13T04:19:03;18.50;73.20
10121;DHT22;5100;45.176;5.714;2022-10-13T04:21:30;18.50;73.10
10121;DHT22;5100;45.176;5.714;2022-10-13T04:23:59;18.50;73.10
10121;DHT22;5100;45.176;5.714;2022-10-13T04:26:27;18.50;73.10
10121;DHT22;5100;45.176;5.714;2022-10-13T04:28:54;18.50;72.80
10121;DHT22;5100;45.176;5.714;2022-10-13T04:31:22;18.50;72.80
10121;DHT22;5100;45.176;5.714;2022-10-13T04:33:48;18.50;72.80
10121;DHT22;5100;45.176;5.714;2022-10-13T04:36:15;18.40;72.60
10121;DHT22;5100;45.176;5.714;2022-10-13T04:38:42;18.40;72.70
10121;DHT22;5100;45.176;5.714;2022-10-13T04:41:09;18.40;72.70
10121;DHT22;5100;45.176;5.714;2022-10-13T04:43:35;18.40;72.70
10121;DHT22;5100;45.176;5.714;2022-10-13T04:46:04;18.40;72.60
10121;DHT22;5100;45.176;5.714;2022-10-13T04:48:30;18.40;72.80
10121;DHT22;5100;45.176;5.714;2022-10-13T04:51:01;18.40;72.80
10121;DHT22;5100;45.176;5.714;2022-10-13T04:53:28;18.40;72.80
10121;DHT22;5100;45.176;5.714;2022-10-13T04:55:55;18.30;72.80
10121;DHT22;5100;45.176;5.714;2022-10-13T04:58:21;18.30;72.70
10121;DHT22;5100;45.176;5.714;2022-10-13T05:00:48;18.30;72.70
10121;DHT22;5100;45.176;5.714;2022-10-13T05:03:14;18.30;72.80
10121;DHT22;5100;45.176;5.714;2022-10-13T05:05:40;18.30;72.80
10121;DHT22;5100;45.176;5.714;2022-10-13T05:08:07;18.30;72.80
10121;DHT22;5100;45.176;5.714;2022-10-13T05:10:33;18.30;72.70
10121;DHT22;5100;45.176;5.714;2022-10-13T05:12:59;18.30;72.80
10121;DHT22;5100;45.176;5.714;2022-10-13T05:15:25;18.30;72.60
10121;DHT22;5100;45.176;5.714;2022-10-13T05:17:51;18.30;72.50
10121;DHT22;5100;45.176;5.714;2022-10-13T05:20:17;18.30;72.50
10121;DHT22;5100;45.176;5.714;2022-10-13T05:22:43;18.20;72.50
10121;DHT22;5100;45.176;5.714;2022-10-13T05:25:09;18.20;72.50
10121;DHT22;5100;45.176;5.714;2022-10-13T05:27:35;18.20;72.50
10121;DHT22;5100;45.176;5.714;2022-10-13T05:30:03;18.20;72.50
10121;DHT22;5100;45.176;5.714;2022-10-13T05:32:29;18.20;72.40
10121;DHT22;5100;45.176;5.714;2022-10-13T05:34:55;18.20;72.40
10121;DHT22;5100;45.176;5.714;2022-10-13T05:37:21;18.20;72.50
10121;DHT22;5100;45.176;5.714;2022-10-13T05:39:47;18.20;72.60
10121;DHT22;5100;45.176;5.714;2022-10-13T05:42:13;18.20;72.70
10121;DHT22;5100;45.176;5.714;2022-10-13T05:44:39;18.20;72.60
10121;DHT22;5100;45.176;5.714;2022-10-13T05:47:05;18.20;72.50
10121;DHT22;5100;45.176;5.714;2022-10-13T05:49:31;18.20;72.50
10121;DHT22;5100;45.176;5.714;2022-10-13T05:52:02;18.20;72.50
10121;DHT22;5100;45.176;5.714;2022-10-13T05:54:40;18.20;72.30
10121;DHT22;5100;45.176;5.714;2022-10-13T05:57:24;18.20;72.20
10121;DHT22;5100;45.176;5.714;2022-10-13T05:59:56;18.20;72.20
10121;DHT22;5100;45.176;5.714;2022-10-13T06:02:27;18.20;72.20
10121;DHT22;5100;45.176;5.714;2022-10-13T06:05:01;18.10;72.20
10121;DHT22;5100;45.176;5.714;2022-10-13T06:07:28;18.20;72.20
10121;DHT22;5100;45.176;5.714;2022-10-13T06:09:56;18.20;72.20
10121;DHT22;5100;45.176;5.714;2022-10-13T06:12:23;18.20;72.20
10121;DHT22;5100;45.176;5.714;2022-10-13T06:14:49;18.20;72.20
10121;DHT22;5100;45.176;5.714;2022-10-13T06:17:15;18.20;72.40
10121;DHT22;5100;45.176;5.714;2022-10-13T06:19:43;18.20;72.50
10121;DHT22;5100;45.176;5.714;2022-10-13T06:22:10;18.20;72.50
10121;DHT22;5100;45.176;5.714;2022-10-13T06:24:36;18.20;72.40
10121;DHT22;5100;45.176;5.714;2022-10-13T06:27:05;18.20;72.40
10121;DHT22;5100;45.176;5.714;2022-10-13T06:29:30;18.20;72.50
10121;DHT22;5100;45.176;5.714;2022-10-13T06:31:58;18.20;72.60
10121;DHT22;5100;45.176;5.714;2022-10-13T06:34:24;18.20;72.70
10121;DHT22;5100;45.176;5.714;2022-10-13T06:36:50;18.20;72.70
10121;DHT22;5100;45.176;5.714;2022-10-13T06:39:16;18.20;72.80
10121;DHT22;5100;45.176;5.714;2022-10-13T06:41:42;18.20;72.60
10121;DHT22;5100;45.176;5.714;2022-10-13T06:44:08;18.20;72.50
10121;DHT22;5100;45.176;5.714;2022-10-13T06:46:34;18.30;72.60
10121;DHT22;5100;45.176;5.714;2022-10-13T06:49:00;18.30;72.40
10121;DHT22;5100;45.176;5.714;2022-10-13T06:51:27;18.30;72.40
10121;DHT22;5100;45.176;5.714;2022-10-13T06:53:54;18.30;72.40
10121;DHT22;5100;45.176;5.714;2022-10-13T06:56:22;18.40;72.40
10121;DHT22;5100;45.176;5.714;2022-10-13T06:58:48;18.40;72.40
10121;DHT22;5100;45.176;5.714;2022-10-13T07:01:14;18.40;72.40
10121;DHT22;5100;45.176;5.714;2022-10-13T07:03:41;18.40;72.40
10121;DHT22;5100;45.176;5.714;2022-10-13T07:06:07;18.50;72.50
10121;DHT22;5100;45.176;5.714;2022-10-13T07:08:34;18.50;72.20
10121;DHT22;5100;45.176;5.714;2022-10-13T07:11:11;18.50;72.10
10121;DHT22;5100;45.176;5.714;2022-10-13T07:13:38;18.50;71.90
10121;DHT22;5100;45.176;5.714;2022-10-13T07:16:07;18.60;71.70
10121;DHT22;5100;45.176;5.714;2022-10-13T07:18:33;18.60;71.80
10121;DHT22;5100;45.176;5.714;2022-10-13T07:21:00;18.60;71.70
10121;DHT22;5100;45.176;5.714;2022-10-13T07:23:28;18.70;71.60
10121;DHT22;5100;45.176;5.714;2022-10-13T07:25:54;18.70;71.50
10121;DHT22;5100;45.176;5.714;2022-10-13T07:28:23;18.70;71.30
10121;DHT22;5100;45.176;5.714;2022-10-13T07:30:49;18.80;71.40
10121;DHT22;5100;45.176;5.714;2022-10-13T07:33:15;18.80;71.50
10121;DHT22;5100;45.176;5.714;2022-10-13T07:35:41;18.80;71.50
10121;DHT22;5100;45.176;5.714;2022-10-13T07:38:08;18.80;71.60
10121;DHT22;5100;45.176;5.714;2022-10-13T07:40:34;18.90;71.60
10121;DHT22;5100;45.176;5.714;2022-10-13T07:43:00;18.90;71.70
10121;DHT22;5100;45.176;5.714;2022-10-13T07:45:27;18.90;71.40
10121;DHT22;5100;45.176;5.714;2022-10-13T07:47:53;18.90;71.10
10121;DHT22;5100;45.176;5.714;2022-10-13T07:50:20;19.00;70.90
10121;DHT22;5100;45.176;5.714;2022-10-13T07:52:46;19.00;71.00
10121;DHT22;5100;45.176;5.714;2022-10-13T07:55:12;19.00;70.90
10121;DHT22;5100;45.176;5.714;2022-10-13T07:57:38;19.00;70.90
10121;DHT22;5100;45.176;5.714;2022-10-13T08:00:05;19.10;70.90
10121;DHT22;5100;45.176;5.714;2022-10-13T08:02:38;19.10;70.90
10121;DHT22;5100;45.176;5.714;2022-10-13T08:05:04;19.10;71.50
10121;DHT22;5100;45.176;5.714;2022-10-13T08:07:30;19.10;71.90
10121;DHT22;5100;45.176;5.714;2022-10-13T08:09:56;19.10;72.30
10121;DHT22;5100;45.176;5.714;2022-10-13T08:12:23;19.20;72.50
10121;DHT22;5100;45.176;5.714;2022-10-13T08:14:50;19.20;72.70
10121;DHT22;5100;45.176;5.714;2022-10-13T08:17:16;19.20;72.80
10121;DHT22;5100;45.176;5.714;2022-10-13T08:19:42;19.20;72.90
10121;DHT22;5100;45.176;5.714;2022-10-13T08:22:09;19.20;72.80
10121;DHT22;5100;45.176;5.714;2022-10-13T08:24:36;19.20;72.80
10121;DHT22;5100;45.176;5.714;2022-10-13T08:27:02;19.30;72.50
10121;DHT22;5100;45.176;5.714;2022-10-13T08:29:28;19.30;72.30
10121;DHT22;5100;45.176;5.714;2022-10-13T08:31:54;19.30;72.10
10121;DHT22;5100;45.176;5.714;2022-10-13T08:34:22;19.40;72.00
10121;DHT22;5100;45.176;5.714;2022-10-13T08:36:48;19.40;71.40
10121;DHT22;5100;45.176;5.714;2022-10-13T08:39:19;19.40;71.10
10121;DHT22;5100;45.176;5.714;2022-10-13T08:41:45;19.40;71.10
10121;DHT22;5100;45.176;5.714;2022-10-13T08:44:22;19.40;71.20
10121;DHT22;5100;45.176;5.714;2022-10-13T08:47:10;19.50;71.40
10121;DHT22;5100;45.176;5.714;2022-10-13T08:49:40;19.50;71.60
10121;DHT22;5100;45.176;5.714;2022-10-13T08:52:15;19.50;71.40
10121;DHT22;5100;45.176;5.714;2022-10-13T08:54:42;19.50;70.90
10121;DHT22;5100;45.176;5.714;2022-10-13T08:57:09;19.60;71.00
10121;DHT22;5100;45.176;5.714;2022-10-13T08:59:35;19.60;71.10
10121;DHT22;5100;45.176;5.714;2022-10-13T09:02:21;19.70;71.00
10121;DHT22;5100;45.176;5.714;2022-10-13T09:04:49;19.70;71.20
10121;DHT22;5100;45.176;5.714;2022-10-13T09:07:28;19.70;71.20
10121;DHT22;5100;45.176;5.714;2022-10-13T09:09:56;19.80;71.30
10121;DHT22;5100;45.176;5.714;2022-10-13T09:12:24;19.80;71.20
10121;DHT22;5100;45.176;5.714;2022-10-13T09:17:28;19.90;70.70
10121;DHT22;5100;45.176;5.714;2022-10-13T09:20:20;19.90;70.70
10121;DHT22;5100;45.176;5.714;2022-10-13T09:23:02;19.90;70.60
10121;DHT22;5100;45.176;5.714;2022-10-13T09:25:29;20.00;70.70
10121;DHT22;5100;45.176;5.714;2022-10-13T09:28:14;20.00;70.70
10121;DHT22;5100;45.176;5.714;2022-10-13T09:30:44;20.00;70.70
10121;DHT22;5100;45.176;5.714;2022-10-13T09:33:19;20.00;70.50
10121;DHT22;5100;45.176;5.714;2022-10-13T09:36:06;20.10;70.50
10121;DHT22;5100;45.176;5.714;2022-10-13T09:38:33;20.10;70.50
10121;DHT22;5100;45.176;5.714;2022-10-13T09:41:03;20.10;70.40
10121;DHT22;5100;45.176;5.714;2022-10-13T09:46:12;20.10;70.10
10121;DHT22;5100;45.176;5.714;2022-10-13T09:48:41;20.20;70.00
10121;DHT22;5100;45.176;5.714;2022-10-13T09:51:40;20.20;70.00
10121;DHT22;5100;45.176;5.714;2022-10-13T09:59:42;20.30;68.50
10121;DHT22;5100;45.176;5.714;2022-10-13T10:02:36;20.30;68.50
10121;DHT22;5100;45.176;5.714;2022-10-13T10:05:06;20.30;68.40
10121;DHT22;5100;45.176;5.714;2022-10-13T10:07:38;20.30;68.30
10121;DHT22;5100;45.176;5.714;2022-10-13T10:10:14;20.40;68.30
10121;DHT22;5100;45.176;5.714;2022-10-13T10:12:43;20.40;68.20
10121;DHT22;5100;45.176;5.714;2022-10-13T10:15:20;20.40;68.30
10121;DHT22;5100;45.176;5.714;2022-10-13T10:18:06;20.50;68.30
10121;DHT22;5100;45.176;5.714;2022-10-13T10:21:23;20.50;68.20
10121;DHT22;5100;45.176;5.714;2022-10-13T10:26:57;20.50;68.10
10121;DHT22;5100;45.176;5.714;2022-10-13T10:38:19;20.60;67.80
10121;DHT22;5100;45.176;5.714;2022-10-13T10:41:07;20.60;67.90
10121;DHT22;5100;45.176;5.714;2022-10-13T10:46:24;20.70;68.00
10121;DHT22;5100;45.176;5.714;2022-10-13T10:49:22;20.70;67.80
10121;DHT22;5100;45.176;5.714;2022-10-13T10:51:50;20.70;67.70
10121;DHT22;5100;45.176;5.714;2022-10-13T10:59:58;20.70;67.90
10121;DHT22;5100;45.176;5.714;2022-10-13T11:05:00;20.70;67.70
10121;DHT22;5100;45.176;5.714;2022-10-13T11:15:06;20.70;68.00
10121;DHT22;5100;45.176;5.714;2022-10-13T11:17:35;20.70;68.00
10121;DHT22;5100;45.176;5.714;2022-10-13T11:25:45;20.70;67.90
10121;DHT22;5100;45.176;5.714;2022-10-13T11:30:56;20.70;68.10
10121;DHT22;5100;45.176;5.714;2022-10-13T11:33:35;20.80;68.00
10121;DHT22;5100;45.176;5.714;2022-10-13T11:36:36;20.80;67.70
10121;DHT22;5100;45.176;5.714;2022-10-13T11:55:35;21.10;66.90
10121;DHT22;5100;45.176;5.714;2022-10-13T11:58:07;21.10;66.80
10121;DHT22;5100;45.176;5.714;2022-10-13T12:00:34;21.10;66.50
10121;DHT22;5100;45.176;5.714;2022-10-13T12:03:00;21.20;66.20
10121;DHT22;5100;45.176;5.714;2022-10-13T12:05:27;21.20;66.00
10121;DHT22;5100;45.176;5.714;2022-10-13T12:07:58;21.20;66.00
10121;DHT22;5100;45.176;5.714;2022-10-13T12:10:34;21.30;65.90
10121;DHT22;5100;45.176;5.714;2022-10-13T12:13:02;21.30;66.00
10121;DHT22;5100;45.176;5.714;2022-10-13T12:15:39;21.30;65.90
10121;DHT22;5100;45.176;5.714;2022-10-13T12:18:27;21.30;65.80
10121;DHT22;5100;45.176;5.714;2022-10-13T12:21:00;21.40;65.80
10121;DHT22;5100;45.176;5.714;2022-10-13T12:23:29;21.40;65.90
10121;DHT22;5100;45.176;5.714;2022-10-13T12:25:57;21.40;65.80
10121;DHT22;5100;45.176;5.714;2022-10-13T12:28:25;21.40;65.80
10121;DHT22;5100;45.176;5.714;2022-10-13T12:30:54;21.50;65.50
10121;DHT22;5100;45.176;5.714;2022-10-13T12:36:15;21.50;65.60
10121;DHT22;5100;45.176;5.714;2022-10-13T12:38:47;21.50;65.70
10121;DHT22;5100;45.176;5.714;2022-10-13T12:41:18;21.50;65.70
10121;DHT22;5100;45.176;5.714;2022-10-13T12:43:46;21.50;65.30
10121;DHT22;5100;45.176;5.714;2022-10-13T12:49:04;21.50;65.70
10121;DHT22;5100;45.176;5.714;2022-10-13T12:51:30;21.50;65.60
10121;DHT22;5100;45.176;5.714;2022-10-13T12:53:56;21.60;65.50
10121;DHT22;5100;45.176;5.714;2022-10-13T12:56:28;21.60;65.20
10121;DHT22;5100;45.176;5.714;2022-10-13T12:58:55;21.60;65.10
10121;DHT22;5100;45.176;5.714;2022-10-13T13:01:24;21.60;65.30
10121;DHT22;5100;45.176;5.714;2022-10-13T13:04:00;21.60;65.50
10121;DHT22;5100;45.176;5.714;2022-10-13T13:06:32;21.60;65.30
10121;DHT22;5100;45.176;5.714;2022-10-13T13:09:06;21.60;65.40
10121;DHT22;5100;45.176;5.714;2022-10-13T13:11:36;21.60;65.40
10121;DHT22;5100;45.176;5.714;2022-10-13T13:17:06;21.60;65.00
10121;DHT22;5100;45.176;5.714;2022-10-13T13:19:34;21.60;64.70
10121;DHT22;5100;45.176;5.714;2022-10-13T13:22:02;21.60;64.60
10121;DHT22;5100;45.176;5.714;2022-10-13T13:24:29;21.60;64.70
10121;DHT22;5100;45.176;5.714;2022-10-13T13:26:54;21.60;64.70
10121;DHT22;5100;45.176;5.714;2022-10-13T13:29:21;21.60;64.80
10121;DHT22;5100;45.176;5.714;2022-10-13T13:31:47;21.60;64.90
10121;DHT22;5100;45.176;5.714;2022-10-13T13:34:13;21.60;65.10
10121;DHT22;5100;45.176;5.714;2022-10-13T13:36:39;21.60;64.90
10121;DHT22;5100;45.176;5.714;2022-10-13T13:39:13;21.60;64.90
10121;DHT22;5100;45.176;5.714;2022-10-13T13:41:41;21.70;65.30
10121;DHT22;5100;45.176;5.714;2022-10-13T13:44:07;21.70;64.90
10121;DHT22;5100;45.176;5.714;2022-10-13T13:46:33;21.70;64.90
10121;DHT22;5100;45.176;5.714;2022-10-13T13:49:00;21.70;64.80
10121;DHT22;5100;45.176;5.714;2022-10-13T13:51:27;21.70;64.80
10121;DHT22;5100;45.176;5.714;2022-10-13T13:53:53;21.70;64.70
10121;DHT22;5100;45.176;5.714;2022-10-13T13:56:20;21.70;64.90
10121;DHT22;5100;45.176;5.714;2022-10-13T13:58:46;21.70;65.20
10121;DHT22;5100;45.176;5.714;2022-10-13T14:01:13;21.70;65.10
10121;DHT22;5100;45.176;5.714;2022-10-13T14:03:39;21.70;65.10
10121;DHT22;5100;45.176;5.714;2022-10-13T14:06:06;21.70;65.20
10121;DHT22;5100;45.176;5.714;2022-10-13T14:08:33;21.70;65.40
10121;DHT22;5100;45.176;5.714;2022-10-13T14:11:04;21.70;65.60
10121;DHT22;5100;45.176;5.714;2022-10-13T14:13:30;21.70;65.60
10121;DHT22;5100;45.176;5.714;2022-10-13T14:15:57;21.70;65.80
10121;DHT22;5100;45.176;5.714;2022-10-13T14:18:24;21.70;65.60
10121;DHT22;5100;45.176;5.714;2022-10-13T14:20:50;21.70;65.40
10121;DHT22;5100;45.176;5.714;2022-10-13T14:23:16;21.70;65.40
10121;DHT22;5100;45.176;5.714;2022-10-13T14:25:43;21.70;65.40
10121;DHT22;5100;45.176;5.714;2022-10-13T14:28:09;21.70;65.50
10121;DHT22;5100;45.176;5.714;2022-10-13T14:30:38;21.70;65.20
10121;DHT22;5100;45.176;5.714;2022-10-13T14:33:08;21.70;65.30
10121;DHT22;5100;45.176;5.714;2022-10-13T14:35:34;21.80;65.40
10121;DHT22;5100;45.176;5.714;2022-10-13T14:38:02;21.80;65.60
10121;DHT22;5100;45.176;5.714;2022-10-13T14:40:28;21.90;65.70
10121;DHT22;5100;45.176;5.714;2022-10-13T14:42:54;21.90;65.60
10121;DHT22;5100;45.176;5.714;2022-10-13T14:45:20;21.90;65.60
10121;DHT22;5100;45.176;5.714;2022-10-13T14:47:46;21.90;65.60
10121;DHT22;5100;45.176;5.714;2022-10-13T14:50:12;21.90;66.20
10121;DHT22;5100;45.176;5.714;2022-10-13T14:52:38;21.80;66.20
10121;DHT22;5100;45.176;5.714;2022-10-13T14:55:04;21.80;66.00
10121;DHT22;5100;45.176;5.714;2022-10-13T14:57:32;21.80;66.00
10121;DHT22;5100;45.176;5.714;2022-10-13T14:59:58;21.80;65.90
10121;DHT22;5100;45.176;5.714;2022-10-13T15:02:24;21.80;65.70
10121;DHT22;5100;45.176;5.714;2022-10-13T15:04:51;21.80;65.70
10121;DHT22;5100;45.176;5.714;2022-10-13T15:07:17;21.90;65.40
10121;DHT22;5100;45.176;5.714;2022-10-13T15:09:43;21.90;65.20
10121;DHT22;5100;45.176;5.714;2022-10-13T15:12:12;21.90;65.00
10121;DHT22;5100;45.176;5.714;2022-10-13T15:14:38;21.90;65.00
10121;DHT22;5100;45.176;5.714;2022-10-13T15:17:04;21.90;65.50
10121;DHT22;5100;45.176;5.714;2022-10-13T15:19:30;21.90;65.40
10121;DHT22;5100;45.176;5.714;2022-10-13T15:21:56;21.80;66.00
10121;DHT22;5100;45.176;5.714;2022-10-13T15:24:22;21.80;66.50
10121;DHT22;5100;45.176;5.714;2022-10-13T15:26:51;21.80;66.60
10121;DHT22;5100;45.176;5.714;2022-10-13T15:29:17;21.80;65.60
10121;DHT22;5100;45.176;5.714;2022-10-13T15:31:43;21.70;65.40
10121;DHT22;5100;45.176;5.714;2022-10-13T15:34:09;21.70;65.60
10121;DHT22;5100;45.176;5.714;2022-10-13T15:36:35;21.70;65.40
10121;DHT22;5100;45.176;5.714;2022-10-13T15:39:02;21.70;65.50
10121;DHT22;5100;45.176;5.714;2022-10-13T15:41:27;21.70;65.70
10121;DHT22;5100;45.176;5.714;2022-10-13T15:43:53;21.60;65.70
10121;DHT22;5100;45.176;5.714;2022-10-13T15:46:20;21.60;65.60
10121;DHT22;5100;45.176;5.714;2022-10-13T15:48:52;21.60;65.80
10121;DHT22;5100;45.176;5.714;2022-10-13T15:51:21;21.60;65.80
10121;DHT22;5100;45.176;5.714;2022-10-13T15:53:47;21.60;65.70
10121;DHT22;5100;45.176;5.714;2022-10-13T15:56:14;21.50;65.90
10121;DHT22;5100;45.176;5.714;2022-10-13T15:58:41;21.50;66.50
10121;DHT22;5100;45.176;5.714;2022-10-13T16:01:08;21.50;67.10
10121;DHT22;5100;45.176;5.714;2022-10-13T16:03:36;21.50;67.30
10121;DHT22;5100;45.176;5.714;2022-10-13T16:06:04;21.50;67.40
10121;DHT22;5100;45.176;5.714;2022-10-13T16:08:31;21.50;67.00
10121;DHT22;5100;45.176;5.714;2022-10-13T16:10:57;21.40;67.40
10121;DHT22;5100;45.176;5.714;2022-10-13T16:13:24;21.40;67.90
10121;DHT22;5100;45.176;5.714;2022-10-13T16:15:57;21.40;67.90
10121;DHT22;5100;45.176;5.714;2022-10-13T16:18:28;21.40;67.50
10121;DHT22;5100;45.176;5.714;2022-10-13T16:20:54;21.40;67.90
10121;DHT22;5100;45.176;5.714;2022-10-13T16:23:24;21.30;68.60
10121;DHT22;5100;45.176;5.714;2022-10-13T16:25:51;21.30;68.80
10121;DHT22;5100;45.176;5.714;2022-10-13T16:28:17;21.30;68.60
10121;DHT22;5100;45.176;5.714;2022-10-13T16:30:43;21.30;67.80
10121;DHT22;5100;45.176;5.714;2022-10-13T16:33:09;21.30;67.70
10121;DHT22;5100;45.176;5.714;2022-10-13T16:35:35;21.30;67.70
10121;DHT22;5100;45.176;5.714;2022-10-13T16:38:02;21.20;67.70
10121;DHT22;5100;45.176;5.714;2022-10-13T16:40:29;21.20;67.80
10121;DHT22;5100;45.176;5.714;2022-10-13T16:42:57;21.20;67.70
10121;DHT22;5100;45.176;5.714;2022-10-13T16:45:23;21.20;68.00
10121;DHT22;5100;45.176;5.714;2022-10-13T16:47:49;21.20;68.70
10121;DHT22;5100;45.176;5.714;2022-10-13T16:50:16;21.20;68.10
10121;DHT22;5100;45.176;5.714;2022-10-13T16:52:42;21.20;67.90
10121;DHT22;5100;45.176;5.714;2022-10-13T16:55:08;21.20;68.50
10121;DHT22;5100;45.176;5.714;2022-10-13T16:57:35;21.20;69.00
10121;DHT22;5100;45.176;5.714;2022-10-13T17:00:00;21.10;69.20
10121;DHT22;5100;45.176;5.714;2022-10-13T17:02:27;21.10;69.40
10121;DHT22;5100;45.176;5.714;2022-10-13T17:04:53;21.10;69.40
10121;DHT22;5100;45.176;5.714;2022-10-13T17:07:19;21.10;69.60
10121;DHT22;5100;45.176;5.714;2022-10-13T17:09:46;21.10;69.80
10121;DHT22;5100;45.176;5.714;2022-10-13T17:12:12;21.10;70.00
10121;DHT22;5100;45.176;5.714;2022-10-13T17:14:38;21.10;70.40
10121;DHT22;5100;45.176;5.714;2022-10-13T17:17:04;21.00;70.60
10121;DHT22;5100;45.176;5.714;2022-10-13T17:19:30;21.00;70.50
10121;DHT22;5100;45.176;5.714;2022-10-13T17:21:56;21.00;70.60
10121;DHT22;5100;45.176;5.714;2022-10-13T17:24:22;21.00;70.70
10121;DHT22;5100;45.176;5.714;2022-10-13T17:26:48;21.00;70.80
10121;DHT22;5100;45.176;5.714;2022-10-13T17:29:14;21.00;71.00
10121;DHT22;5100;45.176;5.714;2022-10-13T17:31:41;21.00;71.20
10121;DHT22;5100;45.176;5.714;2022-10-13T17:34:07;21.00;71.40